createdAt,value
2019-02-21T20:14:49.713Z,27.10
2019-02-21T20:17:23.100Z,29.43
2019-02-21T20:19:56.079Z,29.80
2019-02-21T20:22:27.348Z,28.80
2019-02-21T20:24:57.845Z,31.63
2019-02-21T20:34:12.838Z,9.03
2019-02-21T20:36:51.014Z,6.80
2019-02-21T20:39:16.152Z,8.57
2019-02-21T20:41:46.361Z,10.40
2019-02-21T20:44:16.520Z,7.13
2019-02-21T20:46:46.783Z,8.43
2019-02-21T20:49:16.984Z,9.63
2019-02-21T20:51:47.329Z,8.90
2019-02-21T20:54:17.485Z,8.20
2019-02-21T20:56:47.899Z,7.33
2019-02-21T20:59:18.079Z,7.73
2019-02-21T21:01:48.447Z,8.43
2019-02-21T21:04:18.589Z,7.53
2019-02-21T21:06:48.831Z,8.20
2019-02-21T21:09:19.032Z,6.67
2019-02-21T21:11:49.249Z,8.77
2019-02-21T21:14:19.424Z,9.67
2019-02-21T21:16:49.738Z,7.17
2019-02-21T21:19:19.984Z,7.97
2019-02-21T21:21:51.190Z,7.23
2019-02-21T21:24:21.285Z,8.40
2019-02-21T21:26:51.473Z,8.40
2019-02-21T21:29:21.597Z,7.23
2019-02-21T21:31:51.757Z,6.70
2019-02-21T21:34:21.905Z,9.33
2019-02-21T21:36:52.100Z,7.33
2019-02-21T21:39:22.270Z,6.90
2019-02-21T21:41:57.123Z,6.13
2019-02-21T21:44:27.313Z,9.03
2019-02-21T21:46:57.473Z,7.00
2019-02-21T21:49:27.587Z,6.03
2019-02-21T21:51:57.806Z,8.03
2019-02-21T21:54:27.912Z,6.47
2019-02-21T21:56:58.071Z,9.40
2019-02-21T21:59:28.185Z,6.97
2019-02-21T22:01:58.302Z,7.90
2019-02-21T22:04:28.492Z,6.90
2019-02-21T22:06:58.612Z,5.67
2019-02-21T22:09:28.737Z,7.67
2019-02-21T22:11:58.870Z,6.77
2019-02-21T22:14:28.994Z,5.10
2019-02-21T22:16:59.107Z,6.47
2019-02-21T22:19:29.213Z,5.57
2019-02-21T22:21:59.341Z,5.63
2019-02-21T22:24:29.461Z,7.63
2019-02-21T22:26:59.580Z,7.17
2019-02-21T22:29:29.703Z,7.40
2019-02-21T22:31:59.825Z,7.03
2019-02-21T22:34:29.958Z,5.77
2019-02-21T22:37:00.078Z,6.30
2019-02-21T22:39:30.195Z,6.73
2019-02-21T22:42:00.316Z,6.70
2019-02-21T22:44:31.517Z,6.50
2019-02-21T22:47:01.621Z,5.90
2019-02-21T22:49:31.741Z,6.57
2019-02-21T22:52:01.857Z,7.30
2019-02-21T22:54:31.983Z,8.13
2019-02-21T22:57:02.104Z,6.03
2019-02-21T22:59:32.241Z,7.53
2019-02-21T23:02:02.350Z,6.73
2019-02-21T23:04:37.134Z,8.20
2019-02-21T23:07:21.161Z,5.90
2019-02-21T23:09:51.277Z,8.53
2019-02-21T23:12:21.398Z,5.87
2019-02-21T23:14:51.519Z,7.00
2019-02-21T23:17:21.660Z,6.27
2019-02-21T23:19:51.766Z,7.03
2019-02-21T23:22:21.877Z,7.03
2019-02-21T23:24:52.000Z,6.77
2019-02-21T23:27:22.116Z,8.27
2019-02-21T23:29:52.267Z,6.10
2019-02-21T23:32:22.377Z,7.33
2019-02-21T23:34:52.887Z,5.57
2019-02-21T23:37:22.995Z,7.77
2019-02-21T23:39:53.127Z,8.70
2019-02-21T23:42:23.231Z,7.27
2019-02-21T23:44:53.345Z,6.10
2019-02-21T23:47:23.463Z,6.63
2019-02-21T23:49:53.583Z,6.63
2019-02-21T23:52:23.704Z,6.93
2019-02-21T23:54:53.852Z,6.37
2019-02-21T23:57:23.954Z,7.07
2019-02-21T23:59:54.079Z,7.20
